Time;durP1;ratioP1;P1;durP2;ratioP2;P2;SDS_P1;SDS_P2;PMS_P1;PMS_P2;Temp;Humidity;BMP_temperature;BMP_pressure;BME280_temperature;BME280_humidity;BME280_pressure;Samples;Min_cycle;Max_cycle;Signal;HPM_P1;HPM_P2
2021/01/02 00:02:45;;;;;;;16.38;13.77;;;3.40;1.00;;;;;;4947758;28;20236;-84
2021/01/02 00:05:12;;;;;;;18.05;15.93;;;3.40;1.00;;;;;;4947763;29;20225;-84
2021/01/02 00:08:19;;;;;;;14.23;12.00;;;3.40;1.00;;;;;;4946932;29;20240;-85
2021/01/02 00:10:51;;;;;;;15.30;11.35;;;3.40;1.00;;;;;;4962367;28;20334;-85
2021/01/02 00:13:32;;;;;;;12.35;10.27;;;3.40;1.00;;;;;;4950125;29;20214;-84
2021/01/02 00:16:20;;;;;;;12.50;10.20;;;3.40;1.00;;;;;;4950034;28;20277;-84
2021/01/02 00:19:01;;;;;;;14.20;10.02;;;3.40;1.00;;;;;;4947727;28;20230;-84
2021/01/02 00:21:29;;;;;;;12.95;9.85;;;3.40;1.00;;;;;;4944272;28;20237;-82
2021/01/02 00:24:21;;;;;;;11.48;10.07;;;3.40;1.00;;;;;;4945452;28;20228;-83
2021/01/02 00:26:55;;;;;;;14.82;10.38;;;3.50;1.00;;;;;;4944781;28;20230;-84
2021/01/02 00:29:25;;;;;;;10.45;9.40;;;3.50;1.00;;;;;;4950077;28;20237;-84
2021/01/02 00:32:09;;;;;;;12.10;9.57;;;3.50;1.00;;;;;;4952345;28;21375;-84
2021/01/02 00:35:06;;;;;;;12.48;10.68;;;3.50;1.00;;;;;;4946045;29;20277;-85
2021/01/02 00:37:37;;;;;;;11.80;10.60;;;3.50;1.00;;;;;;4949654;28;20226;-84
2021/01/02 00:40:09;;;;;;;11.52;10.02;;;3.50;1.00;;;;;;4949487;28;21024;-83
2021/01/02 00:42:36;;;;;;;12.98;10.13;;;3.40;1.00;;;;;;4956800;28;20236;-82
2021/01/02 00:45:05;;;;;;;11.63;10.35;;;3.50;1.00;;;;;;4958373;28;20229;-83
2021/01/02 00:47:33;;;;;;;13.98;10.50;;;3.40;1.00;;;;;;4959787;28;20225;-84
2021/01/02 00:50:01;;;;;;;11.95;9.80;;;3.50;1.00;;;;;;4957122;28;20305;-82
2021/01/02 00:53:01;;;;;;;13.02;9.63;;;3.50;1.00;;;;;;4959623;28;20302;-81
2021/01/02 00:55:42;;;;;;;10.13;9.13;;;3.50;1.00;;;;;;4960328;28;20228;-81
2021/01/02 00:58:13;;;;;;;14.90;10.55;;;3.40;1.00;;;;;;4965217;28;20218;-84
2021/01/02 01:00:40;;;;;;;13.15;10.65;;;3.40;1.00;;;;;;4957827;28;20246;-84
2021/01/02 01:03:22;;;;;;;12.07;9.15;;;3.30;1.00;;;;;;4961976;28;20217;-83
2021/01/02 01:05:49;;;;;;;10.02;7.95;;;3.30;1.00;;;;;;4959509;28;20225;-84
2021/01/02 01:08:17;;;;;;;11.68;8.93;;;3.30;1.00;;;;;;4955024;28;20237;-84
2021/01/02 01:10:45;;;;;;;9.65;7.50;;;3.30;1.00;;;;;;4940888;28;20308;-84
2021/01/02 01:13:16;;;;;;;7.65;6.85;;;3.30;1.00;;;;;;4941154;28;20883;-85
2021/01/02 01:15:44;;;;;;;7.68;5.88;;;3.30;1.00;;;;;;4936468;29;20230;-86
2021/01/02 01:18:40;;;;;;;7.25;6.30;;;3.30;1.00;;;;;;4942768;29;20609;-82
2021/01/02 01:21:09;;;;;;;9.00;7.18;;;3.30;1.00;;;;;;4939205;28;20238;-82
2021/01/02 01:24:13;;;;;;;6.88;6.05;;;3.20;1.00;;;;;;4952768;28;20225;-84
2021/01/02 01:27:04;;;;;;;10.95;6.88;;;3.10;1.00;;;;;;4952155;28;20209;-83
2021/01/02 01:29:43;;;;;;;6.60;5.93;;;3.00;1.00;;;;;;4953644;28;20318;-83
2021/01/02 01:32:10;;;;;;;6.05;5.35;;;2.90;1.00;;;;;;4946291;28;20230;-84
2021/01/02 01:34:37;;;;;;;8.05;7.03;;;2.80;1.00;;;;;;4946368;28;20237;-84
2021/01/02 01:37:05;;;;;;;6.90;6.20;;;2.80;1.00;;;;;;4967518;28;20228;-82
2021/01/02 01:39:33;;;;;;;6.78;6.03;;;2.70;1.00;;;;;;4952640;28;20241;-83
2021/01/02 01:42:03;;;;;;;9.70;6.00;;;2.60;1.00;;;;;;4951628;28;20236;-84
2021/01/02 01:44:45;;;;;;;5.88;5.00;;;2.60;1.00;;;;;;4947457;28;20289;-84
2021/01/02 01:47:17;;;;;;;4.95;4.45;;;2.50;1.00;;;;;;4939822;28;20218;-85
2021/01/02 01:50:32;;;;;;;6.90;5.05;;;2.50;1.00;;;;;;4940026;28;20230;-85
2021/01/02 01:53:21;;;;;;;5.80;5.30;;;2.50;1.00;;;;;;4943055;28;20232;-85
2021/01/02 01:56:04;;;;;;;7.38;5.65;;;2.50;1.00;;;;;;4935752;28;20345;-82
2021/01/02 01:58:54;;;;;;;5.07;4.60;;;2.40;1.00;;;;;;4940477;28;21035;-84
2021/01/02 02:01:25;;;;;;;7.53;4.65;;;2.30;1.00;;;;;;4942421;28;20251;-84
2021/01/02 02:04:45;;;;;;;5.65;4.85;;;2.30;1.00;;;;;;4943750;28;20229;-82
2021/01/02 02:07:17;;;;;;;6.10;4.80;;;2.30;1.00;;;;;;4945206;29;20238;-82
2021/01/02 02:09:45;;;;;;;5.88;5.05;;;2.20;1.00;;;;;;4934475;28;20241;-82
2021/01/02 02:12:21;;;;;;;8.15;5.30;;;2.20;1.00;;;;;;4941695;28;20226;-83
2021/01/02 02:15:03;;;;;;;7.90;5.70;;;2.20;1.00;;;;;;4963616;28;20277;-83
2021/01/02 02:17:41;;;;;;;7.30;5.90;;;2.10;1.00;;;;;;4958770;28;20226;-84
2021/01/02 02:20:09;;;;;;;11.10;7.15;;;2.10;1.00;;;;;;4953625;28;20217;-84
2021/01/02 02:22:37;;;;;;;7.55;6.35;;;2.00;1.00;;;;;;4952233;28;20237;-82
2021/01/02 02:25:06;;;;;;;8.55;7.13;;;2.00;1.00;;;;;;4941621;28;20237;-83
2021/01/02 02:27:36;;;;;;;10.85;8.18;;;1.90;1.00;;;;;;4946827;29;20368;-81
2021/01/02 02:30:10;;;;;;;10.15;8.30;;;1.90;1.00;;;;;;4949310;28;20226;-82
2021/01/02 02:32:39;;;;;;;9.70;7.82;;;1.90;1.00;;;;;;4956339;28;20237;-85
2021/01/02 02:35:12;;;;;;;11.13;9.15;;;1.80;1.00;;;;;;4948328;28;20226;-85
2021/01/02 02:37:41;;;;;;;11.55;8.60;;;1.80;1.00;;;;;;4950083;28;20226;-83
2021/01/02 02:40:09;;;;;;;12.02;9.45;;;1.80;1.00;;;;;;4943168;29;20241;-83
2021/01/02 02:42:45;;;;;;;9.98;8.55;;;1.70;1.00;;;;;;4953590;28;20240;-86
2021/01/02 02:45:14;;;;;;;11.52;9.10;;;1.70;1.00;;;;;;4953213;29;20281;-84
2021/01/02 02:47:44;;;;;;;13.68;9.80;;;1.60;1.00;;;;;;4948810;28;20233;-84
2021/01/02 02:50:19;;;;;;;11.63;9.23;;;1.60;1.00;;;;;;4947862;28;20234;-86
2021/01/02 02:52:52;;;;;;;15.18;9.77;;;1.60;1.00;;;;;;4947394;28;20261;-85
2021/01/02 02:55:19;;;;;;;13.70;10.68;;;1.50;1.00;;;;;;4945473;28;21411;-85
2021/01/02 03:05:21;;;;;;;13.40;10.18;;;1.40;1.00;;;;;;4931969;28;20244;-85
2021/01/02 03:07:49;;;;;;;13.20;10.50;;;1.30;1.00;;;;;;4948218;28;20257;-86
2021/01/02 03:10:18;;;;;;;20.52;13.50;;;1.20;1.00;;;;;;4946035;28;20233;-85
2021/01/02 03:12:46;;;;;;;15.10;12.00;;;1.20;1.00;;;;;;4961739;28;20293;-85
2021/01/02 03:15:15;;;;;;;18.70;13.63;;;1.20;1.00;;;;;;4943278;28;20734;-86
2021/01/02 03:17:42;;;;;;;18.35;13.20;;;1.20;1.00;;;;;;4940582;28;20320;-85
2021/01/02 03:20:11;;;;;;;18.42;14.00;;;1.20;1.00;;;;;;4940108;28;20320;-84
2021/01/02 03:22:40;;;;;;;19.38;14.25;;;1.10;1.00;;;;;;4951320;28;20292;-84
2021/01/02 03:25:08;;;;;;;21.83;14.02;;;1.10;1.00;;;;;;4950151;28;20272;-83
2021/01/02 03:27:45;;;;;;;19.38;14.98;;;1.10;1.00;;;;;;4947042;28;20229;-85
2021/01/02 03:33:02;;;;;;;22.92;15.15;;;1.00;1.00;;;;;;4948356;28;20241;-84
2021/01/02 03:35:29;;;;;;;24.33;16.17;;;1.00;1.00;;;;;;4947066;28;20308;-84
2021/01/02 03:38:03;;;;;;;21.13;15.43;;;1.00;1.00;;;;;;4949485;28;20229;-85
2021/01/02 03:40:36;;;;;;;21.30;16.40;;;0.90;1.00;;;;;;4952702;28;20237;-85
2021/01/02 03:43:03;;;;;;;27.83;17.30;;;0.90;1.00;;;;;;4953735;28;20239;-85
2021/01/02 03:45:31;;;;;;;22.80;18.10;;;0.80;1.00;;;;;;4950835;28;20569;-85
2021/01/02 03:47:57;;;;;;;19.77;16.35;;;0.80;1.00;;;;;;4951782;28;20794;-83
2021/01/02 03:50:24;;;;;;;24.98;18.85;;;0.80;1.00;;;;;;4941637;28;20794;-83
2021/01/02 03:52:51;;;;;;;25.48;19.02;;;0.80;1.00;;;;;;4944186;28;20234;-84
2021/01/02 03:55:19;;;;;;;28.58;18.50;;;0.80;1.00;;;;;;4940664;28;20237;-85
2021/01/02 03:57:46;;;;;;;24.33;17.45;;;0.80;1.00;;;;;;4938221;28;20229;-85
2021/01/02 04:00:14;;;;;;;24.70;17.85;;;0.80;1.00;;;;;;4948138;28;20831;-85
2021/01/02 04:02:41;;;;;;;27.95;17.92;;;0.70;1.00;;;;;;4942486;28;20240;-84
2021/01/02 04:05:09;;;;;;;23.70;16.73;;;0.70;1.00;;;;;;4953889;28;20225;-84
2021/01/02 04:07:36;;;;;;;25.17;17.10;;;0.80;1.00;;;;;;4961985;28;20311;-83
2021/01/02 04:10:03;;;;;;;26.27;19.92;;;0.80;1.00;;;;;;4958203;28;20229;-81
2021/01/02 04:12:31;;;;;;;26.08;17.55;;;0.90;1.00;;;;;;4960181;28;20214;-82
2021/01/02 04:14:57;;;;;;;27.73;18.55;;;1.00;1.00;;;;;;4959285;28;20237;-82
2021/01/02 04:17:23;;;;;;;25.08;18.33;;;1.00;1.00;;;;;;4962106;28;20217;-81
2021/01/02 04:19:51;;;;;;;30.63;18.70;;;1.00;1.00;;;;;;4961705;28;20233;-82
2021/01/02 04:22:18;;;;;;;35.53;23.20;;;1.10;1.00;;;;;;4964899;28;20213;-84
2021/01/02 04:24:44;;;;;;;27.73;19.52;;;1.00;1.00;;;;;;4965469;28;20233;-84
2021/01/02 04:27:11;;;;;;;25.15;18.67;;;1.00;1.00;;;;;;4942478;28;20236;-84
2021/01/02 04:29:38;;;;;;;24.20;19.05;;;1.00;1.00;;;;;;4944203;28;20297;-86
2021/01/02 04:32:06;;;;;;;28.88;18.23;;;0.90;1.00;;;;;;4946854;28;20217;-83
2021/01/02 04:34:33;;;;;;;26.95;17.85;;;0.90;1.00;;;;;;4942086;28;20226;-85
2021/01/02 04:37:00;;;;;;;28.73;19.35;;;1.00;1.00;;;;;;4944552;28;21181;-85
2021/01/02 04:39:27;;;;;;;32.60;20.10;;;1.00;1.00;;;;;;4941361;28;20245;-82
2021/01/02 04:41:56;;;;;;;24.90;19.77;;;1.00;1.00;;;;;;4947205;28;20280;-85
2021/01/02 04:44:23;;;;;;;27.42;20.80;;;1.00;1.00;;;;;;4947310;28;20270;-85
2021/01/02 04:46:52;;;;;;;26.00;20.02;;;1.10;1.00;;;;;;4953532;28;20250;-84
2021/01/02 04:49:19;;;;;;;30.00;20.27;;;1.00;1.00;;;;;;4958986;28;20218;-82
2021/01/02 04:51:53;;;;;;;33.13;20.80;;;1.10;1.00;;;;;;4951569;28;20206;-85
2021/01/02 04:54:24;;;;;;;29.08;20.85;;;1.10;1.00;;;;;;4941132;28;20233;-86
2021/01/02 04:56:55;;;;;;;31.40;24.27;;;1.10;1.00;;;;;;4942324;28;20308;-86
2021/01/02 04:59:26;;;;;;;27.75;20.10;;;1.20;1.00;;;;;;4946164;28;20606;-86
2021/01/02 05:01:54;;;;;;;25.23;19.20;;;1.20;1.00;;;;;;4945397;28;20250;-84
2021/01/02 05:04:21;;;;;;;24.02;18.23;;;1.20;1.00;;;;;;4945254;28;20233;-85
2021/01/02 05:06:48;;;;;;;27.25;18.77;;;1.20;1.00;;;;;;4941764;28;20800;-86
2021/01/02 05:09:15;;;;;;;29.75;21.90;;;1.20;1.00;;;;;;4943227;28;21018;-82
2021/01/02 05:11:45;;;;;;;26.40;21.50;;;1.20;1.00;;;;;;4963522;28;20225;-86
2021/01/02 05:14:20;;;;;;;31.38;20.10;;;1.20;1.00;;;;;;4955355;28;20327;-85
2021/01/02 05:16:47;;;;;;;26.77;19.70;;;1.20;1.00;;;;;;4943530;28;20336;-84
2021/01/02 05:19:15;;;;;;;26.33;19.52;;;1.30;1.00;;;;;;4941640;28;20345;-84
2021/01/02 05:21:44;;;;;;;23.95;17.90;;;1.20;1.00;;;;;;4947451;28;20305;-86
2021/01/02 05:24:16;;;;;;;26.33;19.45;;;1.20;1.00;;;;;;4949123;28;20315;-85
2021/01/02 05:26:44;;;;;;;24.70;18.77;;;1.30;1.00;;;;;;4954324;28;20882;-83
2021/01/02 05:29:12;;;;;;;23.23;17.15;;;1.20;1.00;;;;;;4956702;28;20234;-84
2021/01/02 05:31:40;;;;;;;22.27;17.27;;;1.20;1.00;;;;;;4948295;28;21097;-84
2021/01/02 05:34:09;;;;;;;22.13;17.55;;;1.10;1.00;;;;;;4952102;28;20316;-84
2021/01/02 05:36:41;;;;;;;21.70;17.33;;;1.10;1.00;;;;;;4946461;28;20225;-83
2021/01/02 05:39:09;;;;;;;22.80;18.55;;;1.10;1.00;;;;;;4950667;28;20230;-83
2021/01/02 05:41:51;;;;;;;21.40;15.77;;;1.00;1.00;;;;;;4940139;28;20236;-83
2021/01/02 05:44:17;;;;;;;19.55;16.70;;;1.00;1.00;;;;;;4947518;28;20286;-84
2021/01/02 05:46:48;;;;;;;20.55;16.48;;;1.10;1.00;;;;;;4943491;28;20225;-84
2021/01/02 05:49:33;;;;;;;18.88;15.55;;;1.10;1.00;;;;;;4944110;28;20225;-82
2021/01/02 05:52:04;;;;;;;21.02;15.30;;;1.10;1.00;;;;;;4946990;28;20269;-86
2021/01/02 05:54:37;;;;;;;22.83;16.80;;;1.10;1.00;;;;;;4942712;28;20229;-84
2021/01/02 05:57:15;;;;;;;21.63;15.90;;;1.10;1.00;;;;;;4956714;28;20245;-85
2021/01/02 05:59:43;;;;;;;20.65;16.88;;;1.20;1.00;;;;;;4949193;28;21030;-85
2021/01/02 06:02:24;;;;;;;23.20;17.48;;;1.20;1.00;;;;;;4953491;28;20253;-83
2021/01/02 06:04:55;;;;;;;21.20;17.08;;;1.20;1.00;;;;;;4961641;28;20225;-85
2021/01/02 06:07:23;;;;;;;23.33;17.50;;;1.20;1.00;;;;;;4956423;28;20305;-81
2021/01/02 06:09:54;;;;;;;22.90;16.63;;;1.30;1.00;;;;;;4951990;28;20217;-84
2021/01/02 06:12:31;;;;;;;20.23;17.30;;;1.30;1.00;;;;;;4946118;28;20233;-84
2021/01/02 06:15:08;;;;;;;24.42;18.23;;;1.40;1.00;;;;;;4954445;28;20209;-85
2021/01/02 06:17:47;;;;;;;19.13;15.95;;;1.40;1.00;;;;;;4961531;28;20245;-85
2021/01/02 06:20:21;;;;;;;23.77;17.23;;;1.40;1.00;;;;;;4955311;28;20237;-82
2021/01/02 06:25:41;;;;;;;20.70;16.73;;;1.50;1.00;;;;;;4950699;28;20226;-85
2021/01/02 06:28:29;;;;;;;21.98;17.25;;;1.50;1.00;;;;;;4968326;28;20254;-86
2021/01/02 06:31:07;;;;;;;21.92;17.50;;;1.60;1.00;;;;;;4955759;28;20272;-85
2021/01/02 06:33:34;;;;;;;20.23;15.75;;;1.50;1.00;;;;;;4960563;28;20224;-86
2021/01/02 06:36:01;;;;;;;26.08;17.40;;;1.50;1.00;;;;;;4958988;28;20245;-86
2021/01/02 06:38:29;;;;;;;22.63;16.55;;;1.50;1.00;;;;;;4957991;28;20224;-86
2021/01/02 06:40:57;;;;;;;24.05;16.88;;;1.50;1.00;;;;;;4960551;28;20435;-86
2021/01/02 06:43:26;;;;;;;21.13;16.42;;;1.40;1.00;;;;;;4959517;28;20225;-85
2021/01/02 06:46:00;;;;;;;20.83;15.80;;;1.40;1.00;;;;;;4953464;28;20240;-85
2021/01/02 06:48:44;;;;;;;18.85;15.55;;;1.30;1.00;;;;;;4944886;28;20229;-85
2021/01/02 06:51:33;;;;;;;19.25;16.05;;;1.30;1.00;;;;;;4953619;28;20236;-83
2021/01/02 06:54:21;;;;;;;21.05;15.55;;;1.30;1.00;;;;;;4961971;28;20222;-85
2021/01/02 06:57:01;;;;;;;20.10;15.40;;;1.30;1.00;;;;;;4951776;28;20313;-84
2021/01/02 06:59:28;;;;;;;22.10;16.30;;;1.30;1.00;;;;;;4941558;28;20226;-84
2021/01/02 07:01:55;;;;;;;20.98;16.17;;;1.30;1.00;;;;;;4956361;28;20245;-82
2021/01/02 07:04:38;;;;;;;22.10;17.00;;;1.20;1.00;;;;;;4948994;28;20266;-84
2021/01/02 07:07:06;;;;;;;21.48;16.38;;;1.30;1.00;;;;;;4949195;28;20257;-84
2021/01/02 07:09:35;;;;;;;19.42;14.70;;;1.40;1.00;;;;;;4959065;28;20249;-85
2021/01/02 07:12:32;;;;;;;20.35;16.92;;;1.30;1.00;;;;;;4959119;28;20423;-85
2021/01/02 07:15:08;;;;;;;22.20;16.75;;;1.30;1.00;;;;;;4963016;28;20217;-82
2021/01/02 07:17:35;;;;;;;19.48;15.30;;;1.30;1.00;;;;;;4962030;28;20229;-85
2021/01/02 07:20:05;;;;;;;22.45;16.33;;;1.40;1.00;;;;;;4948819;28;20232;-84
2021/01/02 07:22:32;;;;;;;20.80;14.90;;;1.40;1.00;;;;;;4957593;28;20294;-81
2021/01/02 07:25:18;;;;;;;17.55;13.93;;;1.40;1.00;;;;;;4966811;28;20221;-85
2021/01/02 07:28:39;;;;;;;22.73;16.00;;;1.40;1.00;;;;;;4953368;28;20225;-85
2021/01/02 07:31:31;;;;;;;21.25;15.27;;;1.40;1.00;;;;;;4955460;28;20240;-85
2021/01/02 07:33:59;;;;;;;20.65;15.77;;;1.40;1.00;;;;;;4958267;28;20235;-81
2021/01/02 07:36:26;;;;;;;19.40;15.20;;;1.40;1.00;;;;;;4970092;28;20221;-83
2021/01/02 07:38:52;;;;;;;21.90;15.73;;;1.30;1.00;;;;;;4962239;28;20281;-82
2021/01/02 07:41:20;;;;;;;19.08;14.98;;;1.30;1.00;;;;;;4971197;28;20245;-84
2021/01/02 07:43:47;;;;;;;22.25;14.98;;;1.30;1.00;;;;;;4962460;28;20247;-83
2021/01/02 07:46:13;;;;;;;19.83;15.25;;;1.30;1.00;;;;;;4949516;28;20310;-85
2021/01/02 07:48:41;;;;;;;20.98;15.70;;;1.30;1.00;;;;;;4947024;28;20308;-84
2021/01/02 07:51:16;;;;;;;22.70;16.50;;;1.30;1.00;;;;;;4941566;28;20229;-83
2021/01/02 07:53:52;;;;;;;21.42;15.50;;;1.30;1.00;;;;;;4950219;28;20209;-81
2021/01/02 07:56:33;;;;;;;18.63;14.85;;;1.40;1.00;;;;;;4954593;28;20329;-84
2021/01/02 07:59:21;;;;;;;18.77;15.70;;;1.40;1.00;;;;;;4966392;28;20233;-85
2021/01/02 08:01:54;;;;;;;18.45;15.30;;;1.40;1.00;;;;;;4964288;28;20333;-84
2021/01/02 08:04:21;;;;;;;21.63;16.20;;;1.40;1.00;;;;;;4958245;28;20225;-85
2021/01/02 08:06:50;;;;;;;21.02;15.30;;;1.40;1.00;;;;;;4961671;28;20217;-84
2021/01/02 08:09:17;;;;;;;19.58;15.85;;;1.50;1.00;;;;;;4975382;28;20232;-80
2021/01/02 08:11:54;;;;;;;19.08;14.85;;;1.50;1.00;;;;;;4962737;28;20242;-85
2021/01/02 08:14:21;;;;;;;20.35;15.70;;;1.50;1.00;;;;;;4960564;28;20221;-83
2021/01/02 08:17:02;;;;;;;19.90;14.85;;;1.60;1.00;;;;;;4960874;28;20225;-82
2021/01/02 08:19:31;;;;;;;20.20;16.00;;;1.60;1.00;;;;;;4960765;28;20227;-83
2021/01/02 08:21:58;;;;;;;19.63;15.18;;;1.60;1.00;;;;;;4953361;28;20229;-81
2021/01/02 08:24:27;;;;;;;20.25;15.85;;;1.60;1.00;;;;;;4963450;28;20217;-82
2021/01/02 08:26:55;;;;;;;21.10;16.10;;;1.70;1.00;;;;;;4957706;28;20242;-81
2021/01/02 08:29:26;;;;;;;18.27;15.35;;;1.70;1.00;;;;;;4969598;28;20217;-82
2021/01/02 08:31:56;;;;;;;17.30;14.00;;;1.80;1.00;;;;;;4967238;28;20335;-83
2021/01/02 08:34:33;;;;;;;18.77;14.88;;;1.80;1.00;;;;;;4958633;28;20244;-83
2021/01/02 08:37:07;;;;;;;20.02;15.15;;;1.90;1.00;;;;;;4961336;28;20273;-83
2021/01/02 08:39:35;;;;;;;17.05;14.18;;;1.90;1.00;;;;;;4960715;28;20220;-83
2021/01/02 08:42:04;;;;;;;16.35;14.15;;;1.90;1.00;;;;;;4965591;28;20238;-84
2021/01/02 08:44:35;;;;;;;18.10;13.90;;;1.90;1.00;;;;;;4954123;28;20218;-83
2021/01/02 08:47:04;;;;;;;17.05;14.07;;;2.00;1.00;;;;;;4952129;28;20222;-83
2021/01/02 08:49:34;;;;;;;16.58;14.77;;;2.00;1.00;;;;;;4952355;28;20230;-84
2021/01/02 08:52:23;;;;;;;20.23;14.93;;;1.90;1.00;;;;;;4957359;28;20263;-83
2021/01/02 08:54:54;;;;;;;21.25;16.15;;;1.90;1.00;;;;;;4956957;28;20229;-84
2021/01/02 08:57:30;;;;;;;17.95;14.68;;;2.00;1.00;;;;;;4942911;28;20293;-85
2021/01/02 09:00:22;;;;;;;16.48;14.20;;;2.00;1.00;;;;;;4942444;28;21084;-84
2021/01/02 09:03:06;;;;;;;18.90;15.77;;;2.00;1.00;;;;;;4944478;28;20631;-84
2021/01/02 09:05:34;;;;;;;19.95;13.73;;;2.00;1.00;;;;;;4945446;28;20233;-85
2021/01/02 09:08:04;;;;;;;18.40;14.55;;;2.00;1.00;;;;;;4940747;28;20264;-85
2021/01/02 09:10:34;;;;;;;20.70;15.50;;;2.10;1.00;;;;;;4945658;28;20229;-83
2021/01/02 09:13:11;;;;;;;19.02;15.50;;;2.40;1.00;;;;;;4950099;28;20260;-84
2021/01/02 09:15:45;;;;;;;21.05;16.15;;;2.60;1.00;;;;;;4961775;28;20235;-85
2021/01/02 09:18:21;;;;;;;20.60;16.45;;;2.70;1.00;;;;;;4944352;28;20343;-85
2021/01/02 09:20:47;;;;;;;19.27;16.05;;;2.60;1.00;;;;;;4956693;28;20236;-84
2021/01/02 09:23:29;;;;;;;19.70;15.90;;;2.50;1.00;;;;;;4967398;28;21153;-84
2021/01/02 09:25:56;;;;;;;19.92;16.17;;;2.60;1.00;;;;;;4965198;28;20245;-84
2021/01/02 09:28:24;;;;;;;18.85;15.32;;;2.70;1.00;;;;;;4956934;28;20240;-84
2021/01/02 09:30:51;;;;;;;20.55;16.08;;;2.80;1.00;;;;;;4988345;28;20236;-82
2021/01/02 09:33:19;;;;;;;18.10;15.50;;;3.00;1.00;;;;;;4969560;28;20289;-82
2021/01/02 09:35:47;;;;;;;18.90;15.13;;;3.20;1.00;;;;;;4953562;28;20237;-85
2021/01/02 09:38:14;;;;;;;20.23;16.73;;;3.10;1.00;;;;;;4949474;28;20230;-84
2021/01/02 09:40:44;;;;;;;18.65;15.60;;;3.00;1.00;;;;;;4948591;28;20244;-85
2021/01/02 09:43:17;;;;;;;19.95;16.40;;;2.90;1.00;;;;;;4943397;28;20229;-87
2021/01/02 09:45:44;;;;;;;21.63;16.58;;;2.90;1.00;;;;;;4943403;28;20628;-83
2021/01/02 09:48:12;;;;;;;22.33;16.75;;;2.80;1.00;;;;;;4947550;28;20256;-82
2021/01/02 09:50:41;;;;;;;21.08;16.45;;;2.80;1.00;;;;;;4944169;28;20226;-84
2021/01/02 09:53:08;;;;;;;18.85;16.10;;;2.80;1.00;;;;;;4940765;28;20351;-82
2021/01/02 09:55:35;;;;;;;19.45;15.82;;;2.80;1.00;;;;;;4961653;28;20241;-84
2021/01/02 09:58:03;;;;;;;18.98;16.50;;;2.90;1.00;;;;;;4940873;28;20233;-84
2021/01/02 10:00:31;;;;;;;20.48;16.70;;;2.90;1.00;;;;;;4952720;28;20221;-86
2021/01/02 10:02:58;;;;;;;21.08;16.48;;;3.00;1.00;;;;;;4960609;28;20218;-86
2021/01/02 10:05:27;;;;;;;19.67;15.27;;;3.20;1.00;;;;;;4956421;28;20294;-84
2021/01/02 10:07:54;;;;;;;21.80;15.70;;;3.40;1.00;;;;;;4943220;28;20275;-81
2021/01/02 10:10:20;;;;;;;18.20;14.80;;;3.40;1.00;;;;;;4947365;28;20233;-82
2021/01/02 10:12:48;;;;;;;22.35;15.20;;;3.10;1.00;;;;;;4949828;28;21047;-80
2021/01/02 10:15:18;;;;;;;22.13;15.85;;;3.10;1.00;;;;;;4943774;28;20731;-81
2021/01/02 10:17:45;;;;;;;16.80;14.07;;;3.10;1.00;;;;;;4938765;28;20238;-81
2021/01/02 10:20:13;;;;;;;61.45;40.13;;;3.10;1.00;;;;;;4938088;28;20320;-82
2021/01/02 10:22:39;;;;;;;19.05;15.45;;;3.10;1.00;;;;;;4931313;28;20318;-81
2021/01/02 10:25:08;;;;;;;17.20;14.75;;;3.10;1.00;;;;;;4939464;28;20218;-81
2021/01/02 10:27:34;;;;;;;19.52;15.73;;;3.10;1.00;;;;;;4936625;28;20243;-83
2021/01/02 10:30:01;;;;;;;20.98;16.10;;;3.20;1.00;;;;;;4935017;28;20280;-81
2021/01/02 10:32:30;;;;;;;18.83;14.77;;;3.30;1.00;;;;;;4935302;28;20847;-83
2021/01/02 10:34:56;;;;;;;16.42;14.43;;;3.50;1.00;;;;;;4934684;28;20229;-82
2021/01/02 10:37:25;;;;;;;19.50;15.57;;;3.70;1.00;;;;;;4931366;28;20237;-81
2021/01/02 10:39:51;;;;;;;16.95;14.50;;;3.90;1.00;;;;;;4939646;28;20225;-83
2021/01/02 11:17:12;;;;;;;18.98;15.10;;;6.50;1.00;;;;;;5162420;23;20237;-83
2021/01/02 11:19:56;;;;;;;20.52;15.73;;;6.50;1.00;;;;;;4931453;28;21519;-85
2021/01/02 11:23:28;;;;;;;17.85;15.77;;;6.30;1.00;;;;;;4919684;29;20655;-84
2021/01/02 11:27:21;;;;;;;18.98;15.95;;;6.10;1.00;;;;;;4921338;29;20242;-83
2021/01/02 11:29:54;;;;;;;17.70;15.02;;;5.70;1.00;;;;;;4923930;29;20891;-84
2021/01/02 11:32:21;;;;;;;16.20;13.45;;;5.90;1.00;;;;;;4926772;29;20218;-82
2021/01/02 11:34:48;;;;;;;15.35;13.73;;;6.00;1.00;;;;;;4921752;29;21384;-85
2021/01/02 11:37:27;;;;;;;17.90;14.70;;;6.10;1.00;;;;;;4940849;28;20254;-90
2021/01/02 11:39:54;;;;;;;15.70;13.70;;;6.00;1.00;;;;;;4938199;28;20221;-88
2021/01/02 11:42:21;;;;;;;16.70;14.90;;;6.10;1.00;;;;;;4939475;28;20258;-87
2021/01/02 11:44:47;;;;;;;18.95;14.38;;;6.30;1.00;;;;;;4937621;28;20230;-85
2021/01/02 11:47:14;;;;;;;19.85;16.38;;;6.60;1.00;;;;;;4930302;28;20230;-86
2021/01/02 11:49:42;;;;;;;15.82;14.13;;;6.70;1.00;;;;;;4923450;29;20341;-83
2021/01/02 11:52:11;;;;;;;15.57;13.38;;;6.60;1.00;;;;;;4927252;29;20234;-83
2021/01/02 11:54:37;;;;;;;18.30;14.85;;;6.60;1.00;;;;;;4919315;29;20236;-83
2021/01/02 11:57:05;;;;;;;17.48;15.10;;;6.40;1.00;;;;;;4927657;29;20245;-84
2021/01/02 11:59:32;;;;;;;16.02;14.43;;;6.70;1.00;;;;;;4922833;29;20234;-83
2021/01/02 12:02:00;;;;;;;19.30;16.40;;;7.30;1.00;;;;;;4925467;29;20234;-83
2021/01/02 12:04:29;;;;;;;17.13;15.32;;;7.40;1.00;;;;;;4923196;29;20253;-85
2021/01/02 12:07:00;;;;;;;16.23;13.90;;;7.40;1.00;;;;;;4927194;29;20238;-85
2021/01/02 12:09:31;;;;;;;17.90;14.95;;;8.10;1.00;;;;;;4924982;29;20329;-85
2021/01/02 12:12:09;;;;;;;16.88;15.18;;;8.60;1.00;;;;;;4924601;29;20237;-85
2021/01/02 12:17:48;;;;;;;18.75;16.25;;;9.40;1.00;;;;;;4895433;29;20234;-84
2021/01/02 12:20:16;;;;;;;18.15;14.70;;;9.40;1.00;;;;;;4923080;29;20291;-84
2021/01/02 12:22:47;;;;;;;15.82;13.90;;;9.90;1.00;;;;;;4925326;29;20214;-84
2021/01/02 12:25:14;;;;;;;18.27;15.43;;;10.30;1.00;;;;;;4925066;29;20233;-85
2021/01/02 12:27:48;;;;;;;23.98;17.35;;;10.50;1.00;;;;;;4927078;29;20226;-84
2021/01/02 12:30:19;;;;;;;24.08;18.38;;;10.60;1.00;;;;;;4925442;29;20349;-84
2021/01/02 12:32:48;;;;;;;16.83;15.02;;;11.10;1.00;;;;;;4924877;29;20235;-85
2021/01/02 12:35:15;;;;;;;18.77;15.75;;;11.20;1.00;;;;;;4927992;29;20227;-86
2021/01/02 12:37:41;;;;;;;17.40;15.32;;;11.50;1.00;;;;;;4923548;29;20951;-85
2021/01/02 12:40:11;;;;;;;15.50;13.90;;;11.80;1.00;;;;;;4923789;29;20222;-83
2021/01/02 12:42:39;;;;;;;15.07;13.50;;;12.20;1.00;;;;;;4921437;29;20299;-84
2021/01/02 12:45:08;;;;;;;15.98;14.13;;;12.30;1.00;;;;;;4924216;29;20502;-84
2021/01/02 12:47:34;;;;;;;17.45;14.70;;;12.60;1.00;;;;;;4922934;29;20255;-84
2021/01/02 12:50:03;;;;;;;14.87;13.30;;;12.50;1.00;;;;;;4925604;29;20259;-85
2021/01/02 12:52:30;;;;;;;17.75;15.80;;;11.80;1.00;;;;;;4927080;29;20457;-86
2021/01/02 12:54:57;;;;;;;16.85;15.05;;;10.90;1.00;;;;;;4927549;29;20298;-86
2021/01/02 12:57:26;;;;;;;17.48;15.15;;;10.00;1.00;;;;;;4925530;29;20223;-86
2021/01/02 12:59:54;;;;;;;19.55;16.15;;;9.50;1.00;;;;;;4925461;29;20234;-85
2021/01/02 13:02:23;;;;;;;17.60;15.68;;;8.80;1.00;;;;;;4921853;29;20261;-87
2021/01/02 13:04:51;;;;;;;18.23;15.50;;;8.30;1.00;;;;;;4923861;29;20716;-84
2021/01/02 13:07:21;;;;;;;19.25;15.25;;;7.80;1.00;;;;;;4918236;29;20310;-86
2021/01/02 13:09:49;;;;;;;19.27;16.02;;;7.40;1.00;;;;;;4925428;28;20234;-84
2021/01/02 13:12:18;;;;;;;18.45;16.23;;;7.30;1.00;;;;;;4920307;29;20971;-85
2021/01/02 13:14:47;;;;;;;18.48;13.60;;;7.00;1.00;;;;;;4929325;29;20530;-85
2021/01/02 13:17:16;;;;;;;19.23;16.50;;;6.60;1.00;;;;;;4924233;29;20243;-86
2021/01/02 13:19:47;;;;;;;19.42;15.13;;;6.40;1.00;;;;;;4923964;29;20360;-84
2021/01/02 13:22:14;;;;;;;19.10;15.23;;;6.30;1.00;;;;;;4924723;29;20265;-80
2021/01/02 13:24:45;;;;;;;19.27;15.63;;;6.30;1.00;;;;;;4925973;29;20254;-86
2021/01/02 13:27:13;;;;;;;17.25;13.90;;;6.20;1.00;;;;;;4927633;29;21111;-85
2021/01/02 13:29:43;;;;;;;21.13;16.30;;;6.00;1.00;;;;;;4922357;29;20249;-86
2021/01/02 13:32:14;;;;;;;19.20;16.45;;;5.80;1.00;;;;;;4929767;29;20226;-86
2021/01/02 13:34:41;;;;;;;22.30;16.95;;;5.70;1.00;;;;;;4924383;29;20226;-85
2021/01/02 13:37:08;;;;;;;19.20;16.55;;;5.60;1.00;;;;;;4924362;29;20222;-86
2021/01/02 13:39:37;;;;;;;19.88;16.80;;;5.50;1.00;;;;;;4921474;29;20217;-83
2021/01/02 13:42:04;;;;;;;23.17;17.50;;;5.40;1.00;;;;;;4925062;29;21030;-83
2021/01/02 13:44:34;;;;;;;22.30;17.67;;;5.30;1.00;;;;;;4926674;29;20231;-84
2021/01/02 13:47:04;;;;;;;22.60;17.20;;;5.30;1.00;;;;;;4926021;29;20286;-84
2021/01/02 13:49:31;;;;;;;22.08;17.88;;;5.40;1.00;;;;;;4949328;28;21054;-83
2021/01/02 13:51:58;;;;;;;23.13;18.45;;;5.40;1.00;;;;;;4933789;29;20237;-80
2021/01/02 13:54:25;;;;;;;29.15;22.40;;;5.40;1.00;;;;;;4923738;29;20261;-83
2021/01/02 13:56:54;;;;;;;21.65;18.15;;;5.40;1.00;;;;;;4926414;29;20227;-83
2021/01/02 13:59:23;;;;;;;22.65;18.70;;;5.40;1.00;;;;;;4919702;29;20227;-85
2021/01/02 14:01:51;;;;;;;21.02;17.13;;;5.30;1.00;;;;;;4928454;29;20250;-84
2021/01/02 14:04:19;;;;;;;25.60;17.83;;;5.30;1.00;;;;;;4927978;29;21051;-84
2021/01/02 14:06:51;;;;;;;19.02;15.43;;;5.30;1.00;;;;;;4935797;29;20237;-85